createdAt,value
2023-02-23T00:01:27.714Z,10.72
2023-02-23T00:03:58.973Z,10.71
2023-02-23T00:06:27.801Z,10.72
2023-02-23T00:08:54.964Z,10.71
2023-02-23T00:11:22.193Z,10.70
2023-02-23T00:13:50.331Z,10.70
2023-02-23T00:16:22.645Z,10.71
2023-02-23T00:18:55.038Z,10.71
2023-02-23T00:21:35.389Z,10.71
2023-02-23T00:24:06.374Z,10.71
2023-02-23T00:26:35.133Z,10.70
2023-02-23T00:29:07.984Z,10.69
2023-02-23T00:31:35.080Z,10.69
2023-02-23T00:34:03.520Z,10.68
2023-02-23T00:36:33.311Z,10.67
2023-02-23T00:39:02.463Z,10.66
2023-02-23T00:41:29.919Z,10.63
2023-02-23T00:43:58.196Z,10.62
2023-02-23T00:46:27.631Z,10.61
2023-02-23T00:48:55.505Z,10.59
2023-02-23T00:51:23.385Z,10.62
2023-02-23T00:53:54.565Z,10.63
2023-02-23T00:56:21.981Z,10.62
2023-02-23T00:58:48.522Z,10.62
2023-02-23T01:01:15.942Z,10.62
2023-02-23T01:03:43.318Z,10.62
2023-02-23T01:06:13.132Z,10.61
2023-02-23T01:08:42.850Z,10.62
2023-02-23T01:11:14.829Z,10.62
2023-02-23T01:13:44.924Z,10.64
2023-02-23T01:16:13.913Z,10.64
2023-02-23T01:18:41.907Z,10.65
2023-02-23T01:21:18.978Z,10.68
2023-02-23T01:23:45.843Z,10.68
2023-02-23T01:26:34.025Z,10.67
2023-02-23T01:29:04.739Z,10.68
2023-02-23T01:31:31.687Z,10.68
2023-02-23T01:34:02.702Z,10.69
2023-02-23T01:36:29.908Z,10.68
2023-02-23T01:38:57.172Z,10.69
2023-02-23T01:41:25.238Z,10.68
2023-02-23T01:44:07.084Z,10.66
2023-02-23T01:46:45.209Z,10.65
2023-02-23T01:49:16.444Z,10.64
2023-02-23T01:51:50.023Z,10.63
2023-02-23T01:54:21.311Z,10.64
2023-02-23T01:56:57.897Z,10.62
2023-02-23T01:59:29.669Z,10.62
2023-02-23T02:04:44.309Z,10.62
2023-02-23T02:07:23.332Z,10.60
2023-02-23T02:10:11.345Z,10.61
2023-02-23T02:12:44.360Z,10.59
2023-02-23T02:15:17.285Z,10.58
2023-02-23T02:17:57.963Z,10.59
2023-02-23T02:20:33.552Z,10.57
2023-02-23T02:23:02.959Z,10.56
2023-02-23T02:25:44.406Z,10.56
2023-02-23T02:28:29.886Z,10.54
2023-02-23T02:31:45.058Z,10.52
2023-02-23T02:34:49.594Z,10.47
2023-02-23T02:37:22.857Z,10.45
2023-02-23T02:40:13.948Z,10.44
2023-02-23T02:42:55.368Z,10.43
2023-02-23T02:45:28.291Z,10.42
2023-02-23T02:48:02.747Z,10.41
2023-02-23T02:50:53.012Z,10.41
2023-02-23T02:53:29.458Z,10.39
2023-02-23T02:56:00.298Z,10.39
2023-02-23T02:58:27.848Z,10.39
2023-02-23T03:01:13.132Z,10.39
2023-02-23T03:04:02.244Z,10.37
2023-02-23T03:06:54.679Z,10.36
2023-02-23T03:10:17.774Z,10.34
2023-02-23T03:13:32.099Z,10.32
2023-02-23T03:16:54.029Z,10.32
2023-02-23T03:19:41.803Z,10.31
2023-02-23T03:22:33.266Z,10.30
2023-02-23T03:25:37.413Z,10.27
2023-02-23T03:28:31.397Z,10.28
2023-02-23T03:31:29.544Z,10.27
2023-02-23T03:34:38.178Z,10.25
2023-02-23T03:37:33.054Z,10.27
2023-02-23T03:40:28.878Z,10.29
2023-02-23T03:43:17.083Z,10.29
2023-02-23T03:46:06.912Z,10.30
2023-02-23T03:48:55.095Z,10.29
2023-02-23T03:51:43.657Z,10.27
2023-02-23T03:54:35.105Z,10.25
2023-02-23T03:57:24.191Z,10.27
2023-02-23T04:00:17.665Z,10.24
2023-02-23T04:03:06.759Z,10.23
2023-02-23T04:05:55.015Z,10.24
2023-02-23T04:08:43.907Z,10.24
2023-02-23T04:11:40.061Z,10.24
2023-02-23T04:14:16.801Z,10.24
2023-02-23T04:16:43.930Z,10.24
2023-02-23T04:19:11.219Z,10.22
2023-02-23T04:21:37.652Z,10.22
2023-02-23T04:24:04.308Z,10.22
2023-02-23T04:26:30.789Z,10.23
2023-02-23T04:28:57.302Z,10.23
2023-02-23T04:31:25.302Z,10.25
2023-02-23T04:33:52.119Z,10.27
2023-02-23T04:36:18.517Z,10.27
2023-02-23T04:38:44.935Z,10.27
2023-02-23T04:41:11.355Z,10.30
2023-02-23T04:43:37.697Z,10.30
2023-02-23T04:46:04.271Z,10.29
2023-02-23T04:48:30.688Z,10.31
2023-02-23T04:50:57.121Z,10.29
2023-02-23T04:53:23.951Z,10.27
2023-02-23T04:55:50.560Z,10.29
2023-02-23T04:58:16.937Z,10.29
2023-02-23T05:00:43.377Z,10.30
2023-02-23T05:03:10.681Z,10.33
2023-02-23T05:05:37.096Z,10.34
2023-02-23T05:08:03.571Z,10.36
2023-02-23T05:10:30.033Z,10.36
2023-02-23T05:12:58.071Z,10.37
2023-02-23T05:15:24.479Z,10.38
2023-02-23T05:17:50.909Z,10.40
2023-02-23T05:20:17.372Z,10.41
2023-02-23T05:22:43.832Z,10.43
2023-02-23T05:25:11.100Z,10.43
2023-02-23T05:27:37.949Z,10.42
2023-02-23T05:30:07.353Z,10.43
2023-02-23T05:32:34.753Z,10.41
2023-02-23T05:35:02.464Z,10.38
2023-02-23T05:37:28.860Z,10.38
2023-02-23T05:39:55.357Z,10.37
2023-02-23T05:42:21.860Z,10.37
2023-02-23T05:44:48.414Z,10.36
2023-02-23T05:47:14.806Z,10.37
2023-02-23T05:49:41.226Z,10.33
2023-02-23T05:52:08.409Z,10.32
2023-02-23T05:54:34.931Z,10.31
2023-02-23T05:57:01.927Z,10.31
2023-02-23T05:59:28.984Z,10.33
2023-02-23T06:01:55.804Z,10.36
2023-02-23T06:04:23.337Z,10.41
2023-02-23T06:06:50.045Z,10.44
2023-02-23T06:09:16.434Z,10.48
2023-02-23T06:11:42.844Z,10.51
2023-02-23T06:14:09.272Z,10.52
2023-02-23T06:16:35.792Z,10.55
2023-02-23T06:19:02.341Z,10.54
2023-02-23T06:21:28.747Z,10.54
2023-02-23T06:23:55.406Z,10.54
2023-02-23T06:26:21.783Z,10.56
2023-02-23T06:28:48.217Z,10.58
2023-02-23T06:31:14.637Z,10.59
2023-02-23T06:33:41.060Z,10.60
2023-02-23T06:36:08.000Z,10.62
2023-02-23T06:38:34.446Z,10.62
2023-02-23T06:41:00.896Z,10.64
2023-02-23T06:43:28.445Z,10.67
2023-02-23T06:45:55.619Z,10.67
2023-02-23T06:48:22.038Z,10.68
2023-02-23T06:50:48.493Z,10.70
2023-02-23T06:53:14.910Z,10.69
2023-02-23T06:55:41.340Z,10.70
2023-02-23T06:58:08.811Z,10.70
2023-02-23T07:00:35.367Z,10.70
2023-02-23T07:03:01.819Z,10.68
2023-02-23T07:05:28.676Z,10.69
2023-02-23T07:07:55.078Z,10.67
2023-02-23T07:10:21.754Z,10.67
2023-02-23T07:12:48.220Z,10.66
2023-02-23T07:15:17.666Z,10.66
2023-02-23T07:17:45.092Z,10.65
2023-02-23T07:20:12.223Z,10.64
2023-02-23T07:22:39.874Z,10.63
2023-02-23T07:25:07.246Z,10.63
2023-02-23T07:27:33.596Z,10.62
2023-02-23T07:30:00.004Z,10.62
2023-02-23T07:32:26.513Z,10.63
2023-02-23T07:34:53.989Z,10.62
2023-02-23T07:37:21.419Z,10.61
2023-02-23T07:39:47.917Z,10.61
2023-02-23T07:42:14.334Z,10.63
2023-02-23T07:44:40.770Z,10.63
2023-02-23T07:47:07.322Z,10.65
2023-02-23T07:49:34.478Z,10.66
2023-02-23T07:52:00.853Z,10.67
2023-02-23T07:54:27.336Z,10.67
2023-02-23T07:56:53.761Z,10.67
2023-02-23T07:59:20.435Z,10.68
2023-02-23T08:01:47.161Z,10.69
2023-02-23T08:04:13.602Z,10.69
2023-02-23T08:06:40.077Z,10.69
2023-02-23T08:09:07.272Z,10.71
2023-02-23T08:11:33.686Z,10.71
2023-02-23T08:14:00.362Z,10.71
2023-02-23T08:16:31.668Z,10.70
2023-02-23T08:18:59.402Z,10.69
2023-02-23T08:21:29.028Z,10.71
2023-02-23T08:23:56.857Z,10.71
2023-02-23T08:26:25.001Z,10.72
2023-02-23T08:28:52.545Z,10.74
2023-02-23T08:31:21.346Z,10.77
2023-02-23T08:33:48.106Z,10.78
2023-02-23T08:36:14.489Z,10.76
2023-02-23T08:38:40.899Z,10.81
2023-02-23T08:41:07.359Z,10.86
2023-02-23T08:43:33.821Z,10.90
2023-02-23T08:46:00.336Z,10.93
2023-02-23T08:48:26.912Z,10.95
2023-02-23T08:50:57.114Z,11.00
2023-02-23T08:53:25.521Z,11.01
2023-02-23T08:56:00.693Z,11.03
2023-02-23T08:58:28.712Z,11.04
2023-02-23T09:00:55.253Z,11.05
2023-02-23T09:03:23.128Z,11.06
2023-02-23T09:05:50.043Z,11.05
2023-02-23T09:08:16.524Z,11.06
2023-02-23T09:10:43.944Z,11.06
2023-02-23T09:13:12.060Z,11.04
2023-02-23T09:15:39.826Z,11.04
2023-02-23T09:18:07.767Z,11.00
2023-02-23T09:20:34.241Z,11.01
2023-02-23T09:23:00.645Z,11.01
2023-02-23T09:25:29.233Z,11.02
2023-02-23T09:27:57.024Z,11.05
2023-02-23T09:30:23.720Z,11.08
2023-02-23T09:32:51.207Z,11.12
2023-02-23T09:35:18.919Z,11.12
2023-02-23T09:37:48.596Z,11.15
2023-02-23T09:40:19.072Z,11.17
2023-02-23T09:43:04.343Z,11.19
2023-02-23T09:46:12.101Z,11.19
2023-02-23T09:48:39.603Z,11.20
2023-02-23T09:51:09.066Z,11.20
2023-02-23T09:53:48.397Z,11.22
2023-02-23T09:56:33.036Z,11.26
2023-02-23T09:59:00.825Z,11.26
2023-02-23T10:01:48.523Z,11.31
2023-02-23T10:04:28.713Z,11.36
2023-02-23T10:07:00.597Z,11.46
2023-02-23T10:09:35.972Z,11.54
2023-02-23T10:12:13.470Z,11.60
2023-02-23T10:15:04.110Z,11.64
2023-02-23T10:17:53.190Z,11.66
2023-02-23T10:20:34.858Z,11.65
2023-02-23T10:23:22.087Z,11.66
2023-02-23T10:25:50.805Z,11.64
2023-02-23T10:28:21.523Z,11.65
2023-02-23T10:30:50.499Z,11.64
2023-02-23T10:33:40.249Z,11.62
2023-02-23T10:36:37.053Z,11.61
2023-02-23T10:39:07.870Z,11.64
2023-02-23T10:41:38.128Z,11.68
2023-02-23T10:44:16.216Z,11.71
2023-02-23T10:46:46.485Z,11.77
2023-02-23T10:49:22.513Z,11.84
2023-02-23T10:51:52.354Z,11.91
2023-02-23T10:54:34.607Z,11.97
2023-02-23T10:57:01.766Z,12.04
2023-02-23T10:59:28.762Z,12.05
2023-02-23T11:02:02.232Z,12.10
2023-02-23T11:04:32.131Z,12.12
2023-02-23T11:07:22.364Z,12.17
2023-02-23T11:09:51.333Z,12.19
2023-02-23T11:12:22.723Z,12.22
2023-02-23T11:14:51.607Z,12.20
2023-02-23T11:17:33.143Z,12.20
2023-02-23T11:20:02.687Z,12.20
2023-02-23T11:22:34.924Z,12.28
2023-02-23T11:25:12.918Z,12.26
2023-02-23T11:27:39.656Z,12.39
2023-02-23T11:30:07.137Z,12.48
2023-02-23T11:32:42.365Z,12.60
2023-02-23T11:35:20.917Z,12.75
2023-02-23T11:37:49.055Z,12.89
2023-02-23T11:40:31.372Z,13.03
2023-02-23T11:43:13.517Z,13.22
2023-02-23T11:45:48.133Z,13.35
2023-02-23T11:48:28.688Z,13.47
2023-02-23T11:50:56.354Z,13.51
2023-02-23T11:53:31.491Z,13.58
2023-02-23T11:56:08.042Z,13.60
2023-02-23T11:58:40.144Z,13.53
2023-02-23T12:01:12.374Z,13.48
2023-02-23T12:03:49.118Z,13.31
2023-02-23T12:06:33.982Z,13.14
2023-02-23T12:09:23.646Z,13.06
2023-02-23T12:11:58.031Z,13.06
2023-02-23T12:14:33.921Z,13.10
2023-02-23T12:17:13.033Z,13.12
2023-02-23T12:19:46.534Z,13.19
2023-02-23T12:22:20.283Z,13.23
2023-02-23T12:25:04.942Z,13.26
2023-02-23T12:27:46.514Z,13.24
2023-02-23T12:30:43.821Z,13.27
2023-02-23T12:33:20.835Z,13.24
2023-02-23T12:36:26.204Z,13.21
2023-02-23T12:39:30.816Z,13.16
2023-02-23T12:42:28.364Z,13.08
2023-02-23T12:45:03.994Z,12.96
2023-02-23T12:47:43.536Z,12.90
2023-02-23T12:50:33.754Z,12.79
2023-02-23T12:53:08.369Z,12.67
2023-02-23T12:55:47.220Z,12.59
2023-02-23T12:58:32.344Z,12.46
2023-02-23T13:01:17.546Z,12.37
2023-02-23T13:04:02.833Z,12.30
2023-02-23T13:06:47.441Z,12.25
2023-02-23T13:09:48.439Z,12.20
2023-02-23T13:12:20.899Z,12.14
2023-02-23T13:15:18.408Z,12.08
2023-02-23T13:18:06.208Z,12.00
2023-02-23T13:20:38.607Z,11.98
2023-02-23T13:23:40.973Z,11.97
2023-02-23T13:26:24.752Z,11.96
2023-02-23T13:28:58.600Z,11.94
2023-02-23T13:31:29.355Z,11.94
2023-02-23T13:33:58.588Z,11.97
2023-02-23T13:36:27.581Z,11.99
2023-02-23T13:39:31.596Z,12.01
2023-02-23T13:42:21.995Z,12.05
2023-02-23T13:45:06.781Z,12.07
2023-02-23T13:47:42.859Z,12.10
2023-02-23T13:50:27.843Z,12.11
2023-02-23T13:52:58.685Z,12.12
2023-02-23T13:55:32.643Z,12.10
2023-02-23T13:58:15.288Z,12.10
2023-02-23T14:00:42.861Z,12.09
2023-02-23T14:03:23.087Z,12.08
2023-02-23T14:05:53.960Z,12.08
2023-02-23T14:08:32.684Z,12.07
2023-02-23T14:10:59.203Z,12.04
2023-02-23T14:13:34.799Z,12.00
2023-02-23T14:16:16.974Z,11.97
2023-02-23T14:19:08.192Z,11.89
2023-02-23T14:21:52.463Z,11.82
2023-02-23T14:24:24.542Z,11.77
2023-02-23T14:27:34.070Z,11.72
2023-02-23T14:30:11.407Z,11.69
2023-02-23T14:32:40.003Z,11.68
2023-02-23T14:35:33.757Z,11.65
2023-02-23T14:38:02.009Z,11.62
2023-02-23T14:40:34.827Z,11.61
2023-02-23T14:43:03.453Z,11.56
2023-02-23T14:45:38.034Z,11.41
2023-02-23T14:48:17.118Z,11.33
2023-02-23T14:50:43.953Z,11.17
2023-02-23T14:53:24.913Z,11.09
2023-02-23T14:55:51.275Z,10.97
2023-02-23T14:58:23.221Z,10.91
2023-02-23T15:00:51.913Z,10.80
2023-02-23T15:03:18.572Z,10.70
2023-02-23T15:05:52.526Z,10.69
2023-02-23T15:08:23.185Z,10.61
2023-02-23T15:10:52.679Z,10.57
2023-02-23T15:16:29.562Z,10.50
2023-02-23T15:19:33.226Z,10.45
2023-02-23T15:22:01.597Z,10.40
2023-02-23T15:24:33.024Z,10.38
2023-02-23T15:26:59.598Z,10.31
2023-02-23T15:29:32.584Z,10.32
2023-02-23T15:32:15.157Z,10.27
2023-02-23T15:34:41.794Z,10.22
2023-02-23T15:37:15.355Z,10.22
2023-02-23T15:39:56.920Z,10.19
2023-02-23T15:42:36.345Z,10.17
2023-02-23T15:45:11.676Z,10.11
2023-02-23T15:47:40.570Z,10.08
2023-02-23T15:50:20.128Z,10.06
2023-02-23T15:53:00.163Z,10.05
2023-02-23T15:55:36.759Z,10.07
2023-02-23T15:58:20.625Z,10.06
2023-02-23T16:00:55.333Z,10.05
2023-02-23T16:03:44.018Z,10.04
2023-02-23T16:06:32.870Z,10.01
2023-02-23T16:09:03.098Z,10.03
2023-02-23T16:11:37.677Z,10.04
2023-02-23T16:14:05.702Z,10.05
2023-02-23T16:16:35.288Z,10.08
2023-02-23T16:19:02.686Z,10.10
2023-02-23T16:21:35.368Z,10.12
2023-02-23T16:24:09.230Z,10.13
2023-02-23T16:26:44.647Z,10.13
2023-02-23T16:29:18.531Z,10.14
2023-02-23T16:31:48.017Z,10.15
2023-02-23T16:34:30.219Z,10.14
2023-02-23T16:37:23.081Z,10.15
2023-02-23T16:39:49.516Z,10.14
2023-02-23T16:42:30.206Z,10.16
2023-02-23T16:44:57.528Z,10.14
2023-02-23T16:47:23.881Z,10.14
2023-02-23T16:49:51.474Z,10.13
2023-02-23T16:52:23.759Z,10.15
2023-02-23T16:54:54.491Z,10.14
2023-02-23T16:57:27.079Z,10.12
2023-02-23T16:59:54.933Z,10.10
2023-02-23T17:02:24.275Z,10.11
2023-02-23T17:04:51.655Z,10.13
2023-02-23T17:07:22.797Z,10.13
2023-02-23T17:09:50.236Z,10.12
2023-02-23T17:12:21.486Z,10.11
2023-02-23T17:14:49.372Z,10.13
2023-02-23T17:17:18.045Z,10.14
2023-02-23T17:19:45.529Z,10.13
2023-02-23T17:22:12.488Z,10.13
2023-02-23T17:24:43.664Z,10.14
2023-02-23T17:27:10.279Z,10.11
2023-02-23T17:29:37.024Z,10.09
2023-02-23T17:32:03.738Z,10.09
2023-02-23T17:34:30.785Z,10.07
2023-02-23T17:36:57.211Z,10.08
2023-02-23T17:39:27.980Z,10.06
2023-02-23T17:41:54.662Z,10.06
2023-02-23T17:44:21.095Z,10.06
2023-02-23T17:46:48.555Z,10.07
2023-02-23T17:49:14.956Z,10.06
2023-02-23T17:51:41.396Z,10.05
2023-02-23T17:54:07.812Z,10.04
2023-02-23T17:56:34.469Z,10.05
2023-02-23T17:59:00.866Z,10.06
2023-02-23T18:01:27.371Z,10.05
2023-02-23T18:03:56.454Z,10.05
2023-02-23T18:06:22.906Z,10.06
2023-02-23T18:08:49.290Z,10.06
2023-02-23T18:11:18.560Z,10.07
2023-02-23T18:13:47.546Z,10.08
2023-02-23T18:16:14.483Z,10.08
2023-02-23T18:18:44.247Z,10.09
2023-02-23T18:21:13.249Z,10.06
2023-02-23T18:23:40.154Z,10.06
2023-02-23T18:26:09.672Z,10.06
2023-02-23T18:28:37.211Z,10.05
2023-02-23T18:31:04.438Z,10.05
2023-02-23T18:33:31.553Z,10.03
2023-02-23T18:35:58.219Z,10.04
2023-02-23T18:38:24.642Z,10.05
2023-02-23T18:40:51.072Z,10.04
2023-02-23T18:43:17.557Z,10.03
2023-02-23T18:45:43.940Z,10.03
2023-02-23T18:48:13.469Z,10.01
2023-02-23T18:50:41.309Z,9.99
2023-02-23T18:53:09.046Z,9.99
2023-02-23T18:55:37.762Z,9.97
2023-02-23T18:58:05.163Z,9.93
2023-02-23T19:00:36.948Z,9.92
2023-02-23T19:03:03.462Z,9.89
2023-02-23T19:05:30.035Z,9.84
2023-02-23T19:07:57.261Z,9.79
2023-02-23T19:10:23.681Z,9.79
2023-02-23T19:12:50.153Z,9.78
2023-02-23T19:15:16.691Z,9.75
2023-02-23T19:17:43.148Z,9.72
2023-02-23T19:20:13.544Z,9.68
2023-02-23T19:22:41.323Z,9.62
2023-02-23T19:25:11.527Z,9.59
2023-02-23T19:27:38.602Z,9.56
2023-02-23T19:30:08.660Z,9.53
2023-02-23T19:32:35.352Z,9.51
2023-02-23T19:35:01.841Z,9.50
2023-02-23T19:37:28.307Z,9.50
2023-02-23T19:39:54.661Z,9.48
2023-02-23T19:42:21.717Z,9.44
2023-02-23T19:44:48.109Z,9.39
2023-02-23T19:47:14.514Z,9.33
2023-02-23T19:49:40.898Z,9.31
2023-02-23T19:52:07.439Z,9.32
2023-02-23T19:54:37.736Z,9.33
2023-02-23T19:57:04.457Z,9.29
2023-02-23T19:59:30.823Z,9.28
2023-02-23T20:01:57.201Z,9.24
2023-02-23T20:04:23.635Z,9.24
2023-02-23T20:06:50.033Z,9.19
2023-02-23T20:09:16.428Z,9.20
2023-02-23T20:11:42.988Z,9.20
2023-02-23T20:14:09.922Z,9.19
2023-02-23T20:16:36.983Z,9.19
2023-02-23T20:19:05.420Z,9.17
2023-02-23T20:21:32.609Z,9.16
2023-02-23T20:24:01.483Z,9.15
2023-02-23T20:26:30.694Z,9.17
2023-02-23T20:28:58.062Z,9.17
2023-02-23T20:31:30.612Z,9.16
2023-02-23T20:33:59.301Z,9.15
2023-02-23T20:36:26.184Z,9.14
2023-02-23T20:38:52.958Z,9.13
2023-02-23T20:41:19.952Z,9.15
2023-02-23T20:43:46.668Z,9.15
2023-02-23T20:46:15.908Z,9.17
2023-02-23T20:48:42.752Z,9.14
2023-02-23T20:51:12.690Z,9.15
2023-02-23T20:53:40.528Z,9.15
2023-02-23T20:56:08.812Z,9.16
2023-02-23T20:58:35.416Z,9.16
2023-02-23T21:01:10.476Z,9.14
2023-02-23T21:03:36.915Z,9.14
2023-02-23T21:06:03.357Z,9.13
2023-02-23T21:08:30.600Z,9.14
2023-02-23T21:10:56.978Z,9.14
2023-02-23T21:13:26.368Z,9.15
2023-02-23T21:16:00.892Z,9.13
2023-02-23T21:18:28.170Z,9.15
2023-02-23T21:20:56.782Z,9.13
2023-02-23T21:23:26.251Z,9.10
2023-02-23T21:25:54.001Z,9.08
2023-02-23T21:28:21.117Z,9.09
2023-02-23T21:30:47.723Z,9.07
2023-02-23T21:33:14.580Z,9.08
2023-02-23T21:35:41.034Z,9.05
2023-02-23T21:38:08.281Z,9.07
2023-02-23T21:40:35.679Z,9.09
2023-02-23T21:43:06.508Z,9.10
2023-02-23T21:45:33.012Z,9.09
2023-02-23T21:47:59.470Z,9.10
2023-02-23T21:50:26.182Z,9.12
2023-02-23T21:52:57.771Z,9.13
2023-02-23T21:55:24.307Z,9.16
2023-02-23T21:57:52.006Z,9.16
2023-02-23T22:00:19.241Z,9.18
2023-02-23T22:02:46.654Z,9.19
2023-02-23T22:05:15.173Z,9.20
2023-02-23T22:07:46.820Z,9.23
2023-02-23T22:10:13.217Z,9.25
2023-02-23T22:12:39.661Z,9.26
2023-02-23T22:15:07.153Z,9.27
2023-02-23T22:17:33.806Z,9.27
2023-02-23T22:20:00.434Z,9.29
2023-02-23T22:22:27.288Z,9.26
2023-02-23T22:24:53.802Z,9.28
2023-02-23T22:27:20.405Z,9.29
2023-02-23T22:29:46.810Z,9.28
2023-02-23T22:32:13.327Z,9.29
2023-02-23T22:34:40.030Z,9.30
2023-02-23T22:37:06.519Z,9.28
2023-02-23T22:39:33.324Z,9.27
2023-02-23T22:41:59.791Z,9.27
2023-02-23T22:44:26.278Z,9.23
2023-02-23T22:46:53.168Z,9.20
2023-02-23T22:49:20.452Z,9.18
2023-02-23T22:51:47.216Z,9.16
2023-02-23T22:54:13.857Z,9.14
2023-02-23T22:56:42.349Z,9.12
2023-02-23T22:59:10.954Z,9.11
2023-02-23T23:01:38.822Z,9.07
2023-02-23T23:04:12.461Z,9.07
2023-02-23T23:06:41.190Z,9.06
2023-02-23T23:09:11.790Z,9.06
2023-02-23T23:11:41.698Z,9.05
2023-02-23T23:14:10.250Z,9.04
2023-02-23T23:16:47.416Z,9.00
2023-02-23T23:19:18.964Z,8.98
2023-02-23T23:21:46.107Z,8.99
2023-02-23T23:24:13.609Z,8.98
2023-02-23T23:26:40.868Z,8.97
2023-02-23T23:29:10.182Z,8.97
2023-02-23T23:31:38.332Z,8.96
2023-02-23T23:34:10.488Z,8.97
2023-02-23T23:36:53.099Z,8.98
2023-02-23T23:39:22.188Z,8.96
2023-02-23T23:41:49.786Z,8.96
2023-02-23T23:44:22.347Z,8.95
2023-02-23T23:46:50.812Z,8.93
2023-02-23T23:49:19.860Z,8.91
2023-02-23T23:51:51.518Z,8.90
2023-02-23T23:54:21.439Z,8.88
2023-02-23T23:56:49.498Z,8.89
2023-02-23T23:59:18.640Z,8.88
